createdAt,value
2022-12-01T00:00:16.078Z,53.2
2022-12-01T00:05:16.038Z,53.2
2022-12-01T00:10:16.116Z,53.2
2022-12-01T00:15:16.057Z,53.2
2022-12-01T00:20:16.071Z,53.4
2022-12-01T00:25:16.102Z,53.5
2022-12-01T00:30:16.178Z,53.5
2022-12-01T00:35:16.057Z,53.4
2022-12-01T00:40:16.208Z,53.6
2022-12-01T00:45:16.135Z,54.1
2022-12-01T00:50:16.194Z,54.3
2022-12-01T00:55:16.169Z,53.9
2022-12-01T01:00:16.186Z,54.1
2022-12-01T01:05:16.284Z,54.2
2022-12-01T01:10:16.437Z,54.4
2022-12-01T01:15:16.177Z,54.4
2022-12-01T01:20:16.304Z,54.2
2022-12-01T01:25:16.309Z,54.1
2022-12-01T01:30:16.204Z,53.8
2022-12-01T01:35:16.237Z,49.0
2022-12-01T01:40:16.249Z,47.1
2022-12-01T01:45:16.312Z,46.0
2022-12-01T01:50:16.278Z,45.7
2022-12-01T01:55:16.205Z,45.5
2022-12-01T02:00:16.236Z,45.2
2022-12-01T02:05:16.310Z,45.4
2022-12-01T02:10:16.297Z,45.3
2022-12-01T02:15:16.336Z,45.0
2022-12-01T02:20:16.296Z,44.9
2022-12-01T02:25:16.311Z,44.8
2022-12-01T02:30:16.336Z,44.4
2022-12-01T02:35:16.288Z,44.3
2022-12-01T02:40:16.269Z,44.1
2022-12-01T02:45:16.380Z,44.0
2022-12-01T02:50:16.331Z,43.6
2022-12-01T02:55:16.318Z,43.3
2022-12-01T03:00:16.430Z,43.6
2022-12-01T03:05:16.334Z,43.3
2022-12-01T03:10:16.436Z,43.2
2022-12-01T03:15:16.455Z,43.0
2022-12-01T03:20:16.489Z,42.9
2022-12-01T03:25:16.398Z,42.4
2022-12-01T03:30:16.419Z,42.1
2022-12-01T03:35:16.459Z,42.0
2022-12-01T03:40:16.518Z,42.0
2022-12-01T03:45:16.549Z,41.8
2022-12-01T03:50:16.465Z,41.5
2022-12-01T03:55:16.611Z,39.5
2022-12-01T04:00:16.410Z,39.3
2022-12-01T04:05:19.911Z,38.3
2022-12-01T04:10:16.603Z,38.0
2022-12-01T04:15:16.610Z,37.8
2022-12-01T04:20:17.508Z,37.8
2022-12-01T04:25:16.544Z,37.4
2022-12-01T04:30:16.571Z,37.6
2022-12-01T04:35:16.610Z,37.5
2022-12-01T04:40:16.523Z,37.3
2022-12-01T04:45:16.701Z,37.3
2022-12-01T04:50:16.773Z,37.2
2022-12-01T04:55:16.545Z,36.6
2022-12-01T05:00:15.640Z,36.3
2022-12-01T05:05:15.899Z,35.8
2022-12-01T05:10:15.662Z,35.1
2022-12-01T05:15:15.670Z,34.5
2022-12-01T05:20:15.640Z,34.0
2022-12-01T05:25:15.696Z,34.7
2022-12-01T05:30:15.679Z,34.2
2022-12-01T05:35:15.663Z,33.5
2022-12-01T05:40:15.728Z,33.6
2022-12-01T05:45:15.736Z,33.0
2022-12-01T05:50:15.928Z,33.0
2022-12-01T05:55:15.607Z,33.2
2022-12-01T06:00:15.694Z,32.4
2022-12-01T06:05:15.894Z,32.2
2022-12-01T06:10:15.864Z,32.5
2022-12-01T06:15:16.033Z,31.3
2022-12-01T06:20:15.863Z,31.4
2022-12-01T06:25:15.989Z,31.1
2022-12-01T06:30:15.766Z,31.7
2022-12-01T06:35:15.923Z,30.0
2022-12-01T06:40:15.834Z,29.9
2022-12-01T06:45:15.809Z,30.2
2022-12-01T06:50:15.869Z,30.4
2022-12-01T06:55:15.874Z,30.3
2022-12-01T07:00:15.914Z,29.7
2022-12-01T07:05:15.894Z,30.7
2022-12-01T07:10:15.823Z,29.1
2022-12-01T07:15:15.894Z,28.6
2022-12-01T07:20:16.027Z,28.6
2022-12-01T07:25:15.939Z,28.0
2022-12-01T07:30:15.948Z,29.5
2022-12-01T07:35:15.918Z,28.8
2022-12-01T07:40:16.008Z,27.6
2022-12-01T07:45:15.937Z,26.4
2022-12-01T07:50:15.936Z,25.4
2022-12-01T07:55:15.961Z,26.4
2022-12-01T08:00:16.104Z,26.8
2022-12-01T08:05:16.086Z,26.2
2022-12-01T08:10:15.975Z,26.1
2022-12-01T08:15:16.052Z,25.6
2022-12-01T08:20:20.824Z,25.9
2022-12-01T08:25:16.106Z,26.1
2022-12-01T08:30:16.009Z,26.5
2022-12-01T08:35:16.125Z,26.3
2022-12-01T08:40:16.104Z,25.8
2022-12-01T08:45:16.053Z,26.5
2022-12-01T08:50:16.118Z,26.8
2022-12-01T08:55:16.105Z,25.5
2022-12-01T09:00:16.128Z,25.4
2022-12-01T09:05:16.336Z,26.1
2022-12-01T09:10:16.476Z,27.3
2022-12-01T09:15:16.115Z,27.7
2022-12-01T09:20:16.225Z,26.8
2022-12-01T09:25:16.182Z,26.7
2022-12-01T09:30:16.225Z,25.9
2022-12-01T09:35:20.767Z,26.3
2022-12-01T09:40:16.386Z,26.2
2022-12-01T09:45:16.425Z,26.0
2022-12-01T09:50:16.242Z,27.3
2022-12-01T09:55:16.169Z,26.0
2022-12-01T10:00:16.214Z,26.0
2022-12-01T10:05:16.373Z,26.0
2022-12-01T10:10:16.315Z,25.2
2022-12-01T10:15:16.328Z,27.1
2022-12-01T10:20:16.797Z,25.8
2022-12-01T10:25:16.243Z,26.5
2022-12-01T10:30:16.488Z,26.1
2022-12-01T10:35:16.308Z,26.8
2022-12-01T10:40:16.317Z,26.3
2022-12-01T10:45:16.359Z,26.2
2022-12-01T10:50:16.433Z,26.0
2022-12-01T10:55:16.549Z,26.2
2022-12-01T11:00:42.965Z,26.3
2022-12-01T11:05:16.377Z,26.6
2022-12-01T11:10:16.429Z,26.1
2022-12-01T11:15:16.370Z,26.3
2022-12-01T11:20:16.610Z,25.8
2022-12-01T11:25:16.446Z,26.0
2022-12-01T11:30:16.451Z,25.5
2022-12-01T11:35:16.448Z,25.3
2022-12-01T11:40:16.574Z,25.6
2022-12-01T11:45:16.508Z,25.8
2022-12-01T11:50:16.572Z,25.7
2022-12-01T11:55:16.419Z,25.4
2022-12-01T12:00:16.504Z,25.5
2022-12-01T12:05:16.515Z,25.5
2022-12-01T12:10:16.547Z,25.5
2022-12-01T12:15:16.498Z,25.5
2022-12-01T12:20:17.202Z,25.4
2022-12-01T12:25:16.645Z,25.8
2022-12-01T12:30:16.597Z,25.9
2022-12-01T12:35:16.733Z,25.7
2022-12-01T12:40:16.691Z,26.2
2022-12-01T12:45:16.546Z,26.4
2022-12-01T12:50:16.724Z,26.2
2022-12-01T12:55:16.569Z,26.3
2022-12-01T13:00:16.715Z,26.5
2022-12-01T13:05:16.618Z,25.9
2022-12-01T13:10:16.599Z,26.2
2022-12-01T13:15:16.609Z,26.4
2022-12-01T13:20:16.682Z,26.1
2022-12-01T13:25:16.777Z,25.9
2022-12-01T13:30:16.746Z,26.0
2022-12-01T13:35:16.674Z,26.4
2022-12-01T13:40:16.758Z,26.5
2022-12-01T13:45:17.065Z,26.2
2022-12-01T13:50:16.780Z,26.7
2022-12-01T13:55:16.679Z,26.4
2022-12-01T14:00:16.813Z,26.0
2022-12-01T14:05:16.783Z,26.5
2022-12-01T14:10:16.702Z,26.2
2022-12-01T14:15:16.899Z,26.8
2022-12-01T14:20:16.767Z,27.0
2022-12-01T14:25:16.783Z,27.0
2022-12-01T14:30:16.785Z,26.7
2022-12-01T14:35:16.810Z,25.9
2022-12-01T14:40:16.894Z,26.0
2022-12-01T14:45:17.019Z,26.9
2022-12-01T14:50:16.833Z,26.6
2022-12-01T14:55:17.179Z,25.8
2022-12-01T15:00:16.976Z,26.4
2022-12-01T15:05:16.879Z,25.4
2022-12-01T15:10:17.018Z,26.0
2022-12-01T15:15:19.816Z,26.4
2022-12-01T15:20:17.017Z,25.2
2022-12-01T15:25:17.268Z,25.6
2022-12-01T15:30:16.932Z,25.7
2022-12-01T15:35:17.040Z,25.3
2022-12-01T15:41:06.218Z,26.0
2022-12-01T15:41:30.670Z,26.0
2022-12-01T15:45:16.919Z,24.8
2022-12-01T15:50:17.020Z,26.1
2022-12-01T15:55:17.041Z,26.7
2022-12-01T16:00:17.077Z,24.7
2022-12-01T16:05:17.060Z,26.1
2022-12-01T16:10:17.079Z,25.0
2022-12-01T16:15:17.097Z,26.0
2022-12-01T16:20:17.077Z,26.6
2022-12-01T16:25:17.050Z,25.8
2022-12-01T16:30:17.163Z,24.5
2022-12-01T16:35:17.070Z,25.0
2022-12-01T16:40:17.230Z,26.2
2022-12-01T16:45:17.139Z,26.6
2022-12-01T16:50:17.140Z,24.6
2022-12-01T16:55:17.107Z,25.1
2022-12-01T17:00:17.132Z,24.7
2022-12-01T17:05:17.097Z,25.8
2022-12-01T17:10:17.342Z,26.2
2022-12-01T17:15:17.139Z,25.1
2022-12-01T17:20:17.193Z,24.1
2022-12-01T17:25:17.221Z,25.0
2022-12-01T17:30:17.267Z,25.7
2022-12-01T17:35:17.243Z,25.6
2022-12-01T17:40:17.316Z,25.3
2022-12-01T17:45:17.314Z,25.3
2022-12-01T17:50:17.257Z,25.8
2022-12-01T17:55:17.218Z,25.8
2022-12-01T18:00:17.240Z,24.7
2022-12-01T18:05:17.439Z,23.8
2022-12-01T18:10:17.553Z,25.8
2022-12-01T18:15:17.297Z,26.3
2022-12-01T18:20:17.392Z,25.4
2022-12-01T18:25:17.258Z,24.8
2022-12-01T18:30:17.290Z,24.7
2022-12-01T18:35:17.591Z,24.6
2022-12-01T18:40:17.280Z,26.1
2022-12-01T18:45:21.027Z,25.8
2022-12-01T18:50:17.357Z,26.2
2022-12-01T18:55:17.372Z,25.4
2022-12-01T19:00:17.452Z,25.9
2022-12-01T19:05:17.379Z,26.1
2022-12-01T19:10:15.487Z,25.3
2022-12-01T19:15:15.589Z,26.1
2022-12-01T19:20:15.380Z,24.5
2022-12-01T19:25:15.522Z,24.6
2022-12-01T19:30:15.494Z,24.4
2022-12-01T19:35:15.584Z,24.7
2022-12-01T19:40:15.423Z,25.0
2022-12-01T19:45:15.451Z,24.9
2022-12-01T19:50:15.573Z,24.9
2022-12-01T19:55:15.366Z,25.5
2022-12-01T20:00:15.445Z,25.0
2022-12-01T20:05:15.517Z,25.9
2022-12-01T20:10:15.583Z,25.0
2022-12-01T20:15:15.468Z,24.9
2022-12-01T20:20:15.665Z,24.8
2022-12-01T20:25:15.496Z,26.6
2022-12-01T20:30:15.558Z,25.7
2022-12-01T20:35:15.507Z,25.2
2022-12-01T20:40:15.747Z,25.6
2022-12-01T20:45:15.619Z,24.6
2022-12-01T20:50:15.616Z,25.5
2022-12-01T20:55:15.623Z,27.2
2022-12-01T21:00:15.775Z,25.8
2022-12-01T21:05:15.723Z,26.6
2022-12-01T21:10:19.820Z,26.0
2022-12-01T21:15:15.720Z,27.1
2022-12-01T21:20:15.699Z,25.8
2022-12-01T21:25:15.696Z,27.0
2022-12-01T21:30:15.754Z,26.6
2022-12-01T21:35:15.712Z,26.2
2022-12-01T21:40:15.761Z,27.8
2022-12-01T21:45:15.704Z,26.9
2022-12-01T21:50:16.057Z,26.0
2022-12-01T21:55:15.714Z,26.2
2022-12-01T22:00:15.741Z,26.2
2022-12-01T22:05:15.962Z,25.7
2022-12-01T22:10:15.739Z,26.7
2022-12-01T22:15:15.943Z,26.1
2022-12-01T22:20:15.868Z,26.2
2022-12-01T22:25:15.917Z,26.8
2022-12-01T22:30:15.875Z,28.2
2022-12-01T22:35:15.802Z,26.4
2022-12-01T22:40:15.845Z,26.4
2022-12-01T22:45:16.078Z,26.4
2022-12-01T22:50:15.819Z,26.0
2022-12-01T22:55:16.509Z,26.1
2022-12-01T23:00:15.898Z,27.0
2022-12-01T23:05:15.961Z,27.8
2022-12-01T23:10:15.900Z,26.6
2022-12-01T23:15:15.873Z,26.9
2022-12-01T23:20:15.899Z,26.8
2022-12-01T23:25:15.957Z,26.7
2022-12-01T23:30:15.984Z,26.6
2022-12-01T23:35:15.993Z,26.4
2022-12-01T23:40:16.096Z,26.8
2022-12-01T23:45:16.222Z,26.2
2022-12-01T23:50:16.073Z,27.0
2022-12-01T23:55:15.959Z,26.4
